South Range, MI (49963)

8:06 PM EDT on March 26, 2017 (GMT -0400)
Sts. Sergius & Herman Orthodox Church | | Change Station

Elev 1035 ft 47.10 °N, 88.62 °W | Updated 17 minutes ago

Overcast
Overcast
34.0 °F
Feels Like 31 °F
N
3.7
Wind Variable Wind from SW
Gusts 8.1 mph

Today
High -- | Low -- °F
--% Chance of Precip.
Yesterday
High -- | Low -- °F
Precip. -- in
Pressure 29.94 in
Visibility 0.8 miles
Clouds Overcast 400 ft
Windchill 31 °F
Dew Point 33 °F
Humidity 95%
Rainfall 0.05 in
Snow Depth Not available.
7:44 AM 8:16 PM
Waning Crescent, 2% visible
METAR KCMX 262353Z AUTO 00000KT 3/4SM UP BR OVC004 01/00 A2990 RMK AO2 RAB03E29B34E50UPB29E34B50 SLP137 P0002 60002 T00110000 10017 20006 53004
Pressure 29.94 in
Visibility 0.8 miles
Clouds Overcast 400 ft
Windchill 31 °F
Dew Point 33 °F
Humidity 95%
Rainfall 0.05 in
Snow Depth Not available.
7:44 AM 8:16 PM
Waning Crescent, 2% visible
METAR KCMX 262353Z AUTO 00000KT 3/4SM UP BR OVC004 01/00 A2990 RMK AO2 RAB03E29B34E50UPB29E34B50 SLP137 P0002 60002 T00110000 10017 20006 53004

Get Severe Weather Alerts

Thanks for signing up!

Be on the lookout for a verification email in your inbox.

You'll start receiving the daily forecast at 8 AM.

×

10-Day Weather Forecast

Almanac

Astronomy

Mar. 26, 2017 Rise Set
Actual Time
Civil Twilight
Nautical Twilight
Astronomical Twilight
Moon
Length of Visible Light
Length of Day
Tomorrow will be .
, % of the Moon is Illuminated

Today's Extremes

State Highs State Lows

Community

WunderPhotos

Upload Photos

1,962,540 photos uploaded!

WunderBlog® & News

Nearby

Air Quality

  Air Quality AQ Index Pollutant
Not available.

Snow Depth

Station Depth Elevation

Earthquake Activity

City Distance Mag. Time & Date
Minimum magnitude displayed is 2.5.

Earthquake Activity

City Distance Mag. Time & Date
Minimum magnitude displayed is 2.5.

Coastal Water Temperatures

Place Temperature

Stations

Nearby Weather Stations

Station Location Temp. Windchill Dew Point Humidity Wind Precip. Elev Updated Type
                   

Watches & Warnings

There are currently no watches in effect.